sensor_id;sensor_type;location;lat;lon;timestamp;P1;durP1;ratioP1;P2;durP2;ratioP2
77217;SDS011;66214;51.302;17.068;2023-04-03T07:49:35;5.10;;;2.20;;
77217;SDS011;66214;51.302;17.068;2023-04-03T07:52:07;6.20;;;2.60;;
77217;SDS011;66214;51.302;17.068;2023-04-03T07:54:39;4.20;;;1.60;;
77217;SDS011;66214;51.302;17.068;2023-04-03T07:57:11;6.00;;;2.20;;
77217;SDS011;66214;51.302;17.068;2023-04-03T07:59:51;6.40;;;2.10;;
77217;SDS011;66214;51.302;17.068;2023-04-03T08:02:48;4.70;;;2.10;;
77217;SDS011;66214;51.302;17.068;2023-04-03T08:05:21;5.20;;;2.10;;
77217;SDS011;66214;51.302;17.068;2023-04-03T08:07:56;4.00;;;1.70;;
77217;SDS011;66214;51.302;17.068;2023-04-03T08:10:29;5.20;;;2.30;;
77217;SDS011;66214;51.302;17.068;2023-04-03T08:12:58;6.70;;;2.10;;
77217;SDS011;66214;51.302;17.068;2023-04-03T08:15:26;6.00;;;2.00;;
77217;SDS011;66214;51.302;17.068;2023-04-03T08:17:58;3.50;;;1.50;;
77217;SDS011;66214;51.302;17.068;2023-04-03T08:20:27;4.70;;;1.30;;
77217;SDS011;66214;51.302;17.068;2023-04-03T08:22:55;3.80;;;1.20;;
77217;SDS011;66214;51.302;17.068;2023-04-03T08:25:23;5.70;;;1.60;;
77217;SDS011;66214;51.302;17.068;2023-04-03T08:27:51;5.60;;;2.80;;
77217;SDS011;66214;51.302;17.068;2023-04-03T08:30:19;8.60;;;2.50;;
77217;SDS011;66214;51.302;17.068;2023-04-03T08:32:47;6.90;;;2.60;;
77217;SDS011;66214;51.302;17.068;2023-04-03T08:35:15;4.40;;;1.90;;
77217;SDS011;66214;51.302;17.068;2023-04-03T08:37:43;6.50;;;2.10;;
77217;SDS011;66214;51.302;17.068;2023-04-03T08:40:16;3.70;;;2.10;;
77217;SDS011;66214;51.302;17.068;2023-04-03T08:43:09;3.80;;;1.20;;
77217;SDS011;66214;51.302;17.068;2023-04-03T08:45:50;5.00;;;1.40;;
77217;SDS011;66214;51.302;17.068;2023-04-03T08:48:31;5.30;;;1.50;;
77217;SDS011;66214;51.302;17.068;2023-04-03T08:51:13;3.10;;;1.40;;
77217;SDS011;66214;51.302;17.068;2023-04-03T08:53:57;6.30;;;1.70;;
77217;SDS011;66214;51.302;17.068;2023-04-03T08:56:31;5.50;;;1.50;;
77217;SDS011;66214;51.302;17.068;2023-04-03T08:59:05;4.90;;;1.80;;
77217;SDS011;66214;51.302;17.068;2023-04-03T09:01:39;5.10;;;1.70;;
77217;SDS011;66214;51.302;17.068;2023-04-03T09:04:16;2.50;;;1.50;;
77217;SDS011;66214;51.302;17.068;2023-04-03T09:06:49;4.50;;;1.90;;
77217;SDS011;66214;51.302;17.068;2023-04-03T09:17:51;3.80;;;1.60;;
77217;SDS011;66214;51.302;17.068;2023-04-03T09:23:22;6.70;;;1.80;;
77217;SDS011;66214;51.302;17.068;2023-04-03T09:25:57;5.70;;;1.50;;
77217;SDS011;66214;51.302;17.068;2023-04-03T09:28:36;3.30;;;1.20;;
77217;SDS011;66214;51.302;17.068;2023-04-03T09:31:19;7.10;;;2.10;;
77217;SDS011;66214;51.302;17.068;2023-04-03T09:34:26;3.60;;;1.50;;
77217;SDS011;66214;51.302;17.068;2023-04-03T09:37:04;4.70;;;1.50;;
77217;SDS011;66214;51.302;17.068;2023-04-03T09:39:53;5.30;;;1.50;;
77217;SDS011;66214;51.302;17.068;2023-04-03T09:42:24;6.10;;;2.70;;
77217;SDS011;66214;51.302;17.068;2023-04-03T09:44:55;6.70;;;2.20;;
77217;SDS011;66214;51.302;17.068;2023-04-03T09:47:35;5.10;;;1.60;;
77217;SDS011;66214;51.302;17.068;2023-04-03T09:52:43;4.00;;;1.30;;
77217;SDS011;66214;51.302;17.068;2023-04-03T09:57:46;5.00;;;2.30;;
77217;SDS011;66214;51.302;17.068;2023-04-03T10:00:23;3.40;;;1.60;;
77217;SDS011;66214;51.302;17.068;2023-04-03T10:02:55;4.40;;;1.60;;
77217;SDS011;66214;51.302;17.068;2023-04-03T10:05:36;4.80;;;1.80;;
77217;SDS011;66214;51.302;17.068;2023-04-03T10:10:45;4.20;;;2.20;;
77217;SDS011;66214;51.302;17.068;2023-04-03T10:13:18;3.40;;;1.70;;
77217;SDS011;66214;51.302;17.068;2023-04-03T10:18:44;6.60;;;1.70;;
77217;SDS011;66214;51.302;17.068;2023-04-03T10:21:40;6.50;;;2.90;;
77217;SDS011;66214;51.302;17.068;2023-04-03T10:24:15;5.20;;;1.90;;
77217;SDS011;66214;51.302;17.068;2023-04-03T10:36:07;7.20;;;2.40;;
77217;SDS011;66214;51.302;17.068;2023-04-03T10:45:28;8.60;;;2.50;;
77217;SDS011;66214;51.302;17.068;2023-04-03T10:48:16;7.60;;;3.40;;
77217;SDS011;66214;51.302;17.068;2023-04-03T10:51:25;3.60;;;1.80;;
77217;SDS011;66214;51.302;17.068;2023-04-03T10:54:27;3.20;;;1.50;;
77217;SDS011;66214;51.302;17.068;2023-04-03T10:57:11;7.50;;;2.30;;
77217;SDS011;66214;51.302;17.068;2023-04-03T10:59:49;6.00;;;1.70;;
77217;SDS011;66214;51.302;17.068;2023-04-03T11:02:32;4.80;;;1.70;;
77217;SDS011;66214;51.302;17.068;2023-04-03T11:11:14;7.10;;;2.00;;
77217;SDS011;66214;51.302;17.068;2023-04-03T11:13:49;6.60;;;2.30;;
77217;SDS011;66214;51.302;17.068;2023-04-03T11:16:30;7.70;;;2.30;;
77217;SDS011;66214;51.302;17.068;2023-04-03T11:19:20;6.10;;;2.00;;
77217;SDS011;66214;51.302;17.068;2023-04-03T11:24:31;5.50;;;1.90;;
77217;SDS011;66214;51.302;17.068;2023-04-03T11:27:01;6.90;;;2.40;;
77217;SDS011;66214;51.302;17.068;2023-04-03T11:29:38;6.90;;;2.00;;
77217;SDS011;66214;51.302;17.068;2023-04-03T11:32:47;4.30;;;2.10;;
77217;SDS011;66214;51.302;17.068;2023-04-03T11:35:27;8.60;;;3.10;;
77217;SDS011;66214;51.302;17.068;2023-04-03T11:37:56;8.20;;;3.60;;
77217;SDS011;66214;51.302;17.068;2023-04-03T11:40:29;7.00;;;2.60;;
77217;SDS011;66214;51.302;17.068;2023-04-03T11:43:39;7.00;;;2.30;;
77217;SDS011;66214;51.302;17.068;2023-04-03T11:46:06;4.90;;;2.30;;
77217;SDS011;66214;51.302;17.068;2023-04-03T11:53:44;7.90;;;2.70;;
77217;SDS011;66214;51.302;17.068;2023-04-03T11:59:47;7.30;;;2.20;;
77217;SDS011;66214;51.302;17.068;2023-04-03T12:02:44;4.70;;;1.70;;
77217;SDS011;66214;51.302;17.068;2023-04-03T12:05:38;6.40;;;2.80;;
77217;SDS011;66214;51.302;17.068;2023-04-03T12:08:24;6.70;;;2.50;;
77217;SDS011;66214;51.302;17.068;2023-04-03T12:30:05;3.80;;;1.40;;
77217;SDS011;66214;51.302;17.068;2023-04-03T12:33:00;6.50;;;1.90;;
77217;SDS011;66214;51.302;17.068;2023-04-03T12:38:42;6.30;;;2.40;;
77217;SDS011;66214;51.302;17.068;2023-04-03T12:41:42;5.10;;;1.90;;
77217;SDS011;66214;51.302;17.068;2023-04-03T12:44:40;5.00;;;2.00;;
77217;SDS011;66214;51.302;17.068;2023-04-03T12:47:27;7.70;;;2.00;;
77217;SDS011;66214;51.302;17.068;2023-04-03T12:50:27;5.40;;;1.80;;
77217;SDS011;66214;51.302;17.068;2023-04-03T12:53:01;5.20;;;2.20;;
77217;SDS011;66214;51.302;17.068;2023-04-03T12:55:32;5.50;;;2.30;;
77217;SDS011;66214;51.302;17.068;2023-04-03T12:58:23;4.60;;;2.00;;
77217;SDS011;66214;51.302;17.068;2023-04-03T13:01:13;6.00;;;2.30;;
77217;SDS011;66214;51.302;17.068;2023-04-03T13:03:45;5.50;;;2.60;;
77217;SDS011;66214;51.302;17.068;2023-04-03T13:06:23;5.40;;;2.00;;
77217;SDS011;66214;51.302;17.068;2023-04-03T13:08:57;7.30;;;2.40;;
77217;SDS011;66214;51.302;17.068;2023-04-03T13:11:32;7.00;;;2.50;;
77217;SDS011;66214;51.302;17.068;2023-04-03T13:14:05;6.60;;;2.30;;
77217;SDS011;66214;51.302;17.068;2023-04-03T13:17:03;7.50;;;2.00;;
77217;SDS011;66214;51.302;17.068;2023-04-03T13:19:37;6.20;;;2.20;;
77217;SDS011;66214;51.302;17.068;2023-04-03T13:22:08;7.60;;;2.30;;
77217;SDS011;66214;51.302;17.068;2023-04-03T13:24:49;5.90;;;2.20;;
77217;SDS011;66214;51.302;17.068;2023-04-03T13:27:18;4.80;;;1.70;;
77217;SDS011;66214;51.302;17.068;2023-04-03T13:29:52;7.80;;;2.50;;
77217;SDS011;66214;51.302;17.068;2023-04-03T13:32:27;6.50;;;2.20;;
77217;SDS011;66214;51.302;17.068;2023-04-03T13:34:57;4.50;;;1.70;;
77217;SDS011;66214;51.302;17.068;2023-04-03T13:37:32;5.10;;;1.80;;
77217;SDS011;66214;51.302;17.068;2023-04-03T13:42:37;12.10;;;4.90;;
77217;SDS011;66214;51.302;17.068;2023-04-03T13:45:22;10.50;;;3.70;;
77217;SDS011;66214;51.302;17.068;2023-04-03T13:48:18;8.90;;;3.30;;
77217;SDS011;66214;51.302;17.068;2023-04-03T13:50:57;7.90;;;2.90;;
77217;SDS011;66214;51.302;17.068;2023-04-03T13:53:34;10.60;;;4.00;;
77217;SDS011;66214;51.302;17.068;2023-04-03T13:56:34;5.70;;;2.40;;
77217;SDS011;66214;51.302;17.068;2023-04-03T14:01:54;5.30;;;2.30;;
77217;SDS011;66214;51.302;17.068;2023-04-03T14:07:08;7.20;;;2.70;;
77217;SDS011;66214;51.302;17.068;2023-04-03T14:09:36;6.00;;;2.30;;
77217;SDS011;66214;51.302;17.068;2023-04-03T14:12:30;6.70;;;2.40;;
77217;SDS011;66214;51.302;17.068;2023-04-03T14:14:56;5.60;;;2.00;;
77217;SDS011;66214;51.302;17.068;2023-04-03T14:17:25;5.60;;;2.20;;
77217;SDS011;66214;51.302;17.068;2023-04-03T14:19:55;6.60;;;2.50;;
77217;SDS011;66214;51.302;17.068;2023-04-03T14:22:31;5.90;;;2.40;;
77217;SDS011;66214;51.302;17.068;2023-04-03T14:25:02;6.40;;;2.30;;
77217;SDS011;66214;51.302;17.068;2023-04-03T14:27:38;5.00;;;1.90;;
77217;SDS011;66214;51.302;17.068;2023-04-03T14:30:15;4.80;;;2.20;;
77217;SDS011;66214;51.302;17.068;2023-04-03T14:32:46;4.90;;;1.80;;
77217;SDS011;66214;51.302;17.068;2023-04-03T14:35:15;7.40;;;2.30;;
77217;SDS011;66214;51.302;17.068;2023-04-03T14:37:46;9.00;;;2.40;;
77217;SDS011;66214;51.302;17.068;2023-04-03T14:40:21;4.40;;;1.70;;
77217;SDS011;66214;51.302;17.068;2023-04-03T14:42:52;5.60;;;1.60;;
77217;SDS011;66214;51.302;17.068;2023-04-03T14:45:23;3.90;;;1.60;;
77217;SDS011;66214;51.302;17.068;2023-04-03T14:47:53;6.30;;;1.80;;
77217;SDS011;66214;51.302;17.068;2023-04-03T14:50:25;5.80;;;2.10;;
77217;SDS011;66214;51.302;17.068;2023-04-03T14:52:57;6.80;;;2.50;;
77217;SDS011;66214;51.302;17.068;2023-04-03T14:55:26;4.90;;;1.60;;
77217;SDS011;66214;51.302;17.068;2023-04-03T14:57:55;7.70;;;1.90;;
77217;SDS011;66214;51.302;17.068;2023-04-03T15:03:49;5.40;;;2.10;;
77217;SDS011;66214;51.302;17.068;2023-04-03T15:06:18;8.00;;;3.00;;
77217;SDS011;66214;51.302;17.068;2023-04-03T15:08:49;7.00;;;2.40;;
77217;SDS011;66214;51.302;17.068;2023-04-03T15:11:17;9.30;;;3.20;;
77217;SDS011;66214;51.302;17.068;2023-04-03T15:13:45;7.10;;;2.30;;
77217;SDS011;66214;51.302;17.068;2023-04-03T15:16:18;9.80;;;3.60;;
77217;SDS011;66214;51.302;17.068;2023-04-03T15:18:47;7.50;;;2.60;;
77217;SDS011;66214;51.302;17.068;2023-04-03T15:21:16;7.20;;;2.50;;
77217;SDS011;66214;51.302;17.068;2023-04-03T15:23:44;9.10;;;3.40;;
77217;SDS011;66214;51.302;17.068;2023-04-03T15:26:13;7.20;;;2.50;;
77217;SDS011;66214;51.302;17.068;2023-04-03T15:28:42;8.00;;;2.10;;
77217;SDS011;66214;51.302;17.068;2023-04-03T15:31:11;15.60;;;4.40;;
77217;SDS011;66214;51.302;17.068;2023-04-03T15:33:39;8.70;;;2.70;;
77217;SDS011;66214;51.302;17.068;2023-04-03T15:36:08;11.20;;;3.20;;
77217;SDS011;66214;51.302;17.068;2023-04-03T15:38:36;9.80;;;3.70;;
77217;SDS011;66214;51.302;17.068;2023-04-03T15:41:05;11.30;;;3.30;;
77217;SDS011;66214;51.302;17.068;2023-04-03T15:43:33;5.50;;;2.40;;
77217;SDS011;66214;51.302;17.068;2023-04-03T15:46:03;5.00;;;1.90;;
77217;SDS011;66214;51.302;17.068;2023-04-03T15:48:31;5.40;;;2.00;;
77217;SDS011;66214;51.302;17.068;2023-04-03T15:50:59;10.00;;;2.10;;
77217;SDS011;66214;51.302;17.068;2023-04-03T15:53:28;4.60;;;2.00;;
77217;SDS011;66214;51.302;17.068;2023-04-03T15:55:56;7.90;;;2.80;;
77217;SDS011;66214;51.302;17.068;2023-04-03T15:58:24;7.50;;;2.50;;
77217;SDS011;66214;51.302;17.068;2023-04-03T16:00:53;6.70;;;2.60;;
77217;SDS011;66214;51.302;17.068;2023-04-03T16:03:21;5.50;;;1.80;;
77217;SDS011;66214;51.302;17.068;2023-04-03T16:05:52;6.50;;;2.00;;
77217;SDS011;66214;51.302;17.068;2023-04-03T16:08:20;6.50;;;2.80;;
77217;SDS011;66214;51.302;17.068;2023-04-03T16:10:48;7.90;;;3.00;;
77217;SDS011;66214;51.302;17.068;2023-04-03T16:13:16;4.50;;;2.00;;
77217;SDS011;66214;51.302;17.068;2023-04-03T16:15:44;14.70;;;4.30;;
77217;SDS011;66214;51.302;17.068;2023-04-03T16:18:12;10.10;;;3.00;;
77217;SDS011;66214;51.302;17.068;2023-04-03T16:20:41;9.80;;;3.20;;
77217;SDS011;66214;51.302;17.068;2023-04-03T16:23:11;2.50;;;1.20;;
77217;SDS011;66214;51.302;17.068;2023-04-03T16:25:40;6.20;;;2.30;;
77217;SDS011;66214;51.302;17.068;2023-04-03T16:28:14;7.20;;;2.40;;
77217;SDS011;66214;51.302;17.068;2023-04-03T16:30:44;6.20;;;2.40;;
77217;SDS011;66214;51.302;17.068;2023-04-03T16:33:14;5.00;;;1.40;;
77217;SDS011;66214;51.302;17.068;2023-04-03T16:35:43;9.70;;;3.20;;
77217;SDS011;66214;51.302;17.068;2023-04-03T16:38:12;11.90;;;2.90;;
77217;SDS011;66214;51.302;17.068;2023-04-03T16:40:41;14.70;;;4.50;;
77217;SDS011;66214;51.302;17.068;2023-04-03T16:43:09;12.00;;;4.10;;
77217;SDS011;66214;51.302;17.068;2023-04-03T16:45:38;11.30;;;4.20;;
77217;SDS011;66214;51.302;17.068;2023-04-03T16:48:07;12.20;;;4.00;;
77217;SDS011;66214;51.302;17.068;2023-04-03T16:50:36;10.20;;;3.90;;
77217;SDS011;66214;51.302;17.068;2023-04-03T16:56:40;12.60;;;5.30;;
77217;SDS011;66214;51.302;17.068;2023-04-03T16:59:08;10.10;;;3.40;;
77217;SDS011;66214;51.302;17.068;2023-04-03T17:01:37;12.40;;;4.80;;
77217;SDS011;66214;51.302;17.068;2023-04-03T17:04:06;12.00;;;4.30;;
77217;SDS011;66214;51.302;17.068;2023-04-03T17:06:34;13.00;;;4.50;;
77217;SDS011;66214;51.302;17.068;2023-04-03T17:09:03;10.10;;;4.90;;
77217;SDS011;66214;51.302;17.068;2023-04-03T17:11:32;11.80;;;4.00;;
77217;SDS011;66214;51.302;17.068;2023-04-03T17:14:01;14.40;;;5.30;;
77217;SDS011;66214;51.302;17.068;2023-04-03T17:16:30;13.90;;;5.20;;
77217;SDS011;66214;51.302;17.068;2023-04-03T17:19:00;14.30;;;5.80;;
77217;SDS011;66214;51.302;17.068;2023-04-03T17:21:32;13.70;;;4.60;;
77217;SDS011;66214;51.302;17.068;2023-04-03T17:24:03;8.50;;;3.60;;
77217;SDS011;66214;51.302;17.068;2023-04-03T17:26:35;13.60;;;5.50;;
77217;SDS011;66214;51.302;17.068;2023-04-03T17:29:04;14.50;;;5.70;;
77217;SDS011;66214;51.302;17.068;2023-04-03T17:31:33;10.50;;;4.20;;
77217;SDS011;66214;51.302;17.068;2023-04-03T17:34:02;13.10;;;5.00;;
77217;SDS011;66214;51.302;17.068;2023-04-03T17:36:32;11.60;;;5.00;;
77217;SDS011;66214;51.302;17.068;2023-04-03T17:39:01;14.40;;;4.30;;
77217;SDS011;66214;51.302;17.068;2023-04-03T17:41:29;12.30;;;3.80;;
77217;SDS011;66214;51.302;17.068;2023-04-03T17:43:58;9.10;;;2.80;;
77217;SDS011;66214;51.302;17.068;2023-04-03T17:46:26;11.20;;;4.30;;
77217;SDS011;66214;51.302;17.068;2023-04-03T17:48:56;10.60;;;3.80;;
77217;SDS011;66214;51.302;17.068;2023-04-03T17:51:27;11.90;;;4.60;;
77217;SDS011;66214;51.302;17.068;2023-04-03T17:53:55;8.00;;;3.50;;
77217;SDS011;66214;51.302;17.068;2023-04-03T17:56:25;8.20;;;3.80;;
77217;SDS011;66214;51.302;17.068;2023-04-03T17:58:55;10.50;;;4.10;;
77217;SDS011;66214;51.302;17.068;2023-04-03T18:01:31;12.50;;;5.00;;
77217;SDS011;66214;51.302;17.068;2023-04-03T18:04:03;13.00;;;4.90;;
77217;SDS011;66214;51.302;17.068;2023-04-03T18:06:37;10.90;;;4.90;;
77217;SDS011;66214;51.302;17.068;2023-04-03T18:09:10;12.70;;;5.00;;
77217;SDS011;66214;51.302;17.068;2023-04-03T18:11:46;13.60;;;5.90;;
77217;SDS011;66214;51.302;17.068;2023-04-03T18:14:19;21.90;;;6.50;;
77217;SDS011;66214;51.302;17.068;2023-04-03T18:16:49;31.70;;;9.40;;
77217;SDS011;66214;51.302;17.068;2023-04-03T18:19:18;28.70;;;9.90;;
77217;SDS011;66214;51.302;17.068;2023-04-03T18:21:47;22.20;;;8.10;;
77217;SDS011;66214;51.302;17.068;2023-04-03T18:24:18;14.80;;;5.90;;
77217;SDS011;66214;51.302;17.068;2023-04-03T18:26:55;16.30;;;7.00;;
77217;SDS011;66214;51.302;17.068;2023-04-03T18:29:28;12.20;;;6.00;;
77217;SDS011;66214;51.302;17.068;2023-04-03T18:32:00;15.10;;;5.60;;
77217;SDS011;66214;51.302;17.068;2023-04-03T18:34:32;10.20;;;4.90;;
77217;SDS011;66214;51.302;17.068;2023-04-03T18:37:00;11.50;;;5.00;;
77217;SDS011;66214;51.302;17.068;2023-04-03T18:39:30;11.80;;;4.60;;
77217;SDS011;66214;51.302;17.068;2023-04-03T18:42:04;35.60;;;9.60;;
77217;SDS011;66214;51.302;17.068;2023-04-03T18:44:36;19.80;;;6.80;;
77217;SDS011;66214;51.302;17.068;2023-04-03T18:47:06;19.90;;;6.50;;
77217;SDS011;66214;51.302;17.068;2023-04-03T18:49:37;16.30;;;6.30;;
77217;SDS011;66214;51.302;17.068;2023-04-03T18:52:07;14.00;;;6.10;;
77217;SDS011;66214;51.302;17.068;2023-04-03T18:54:37;10.70;;;4.10;;
77217;SDS011;66214;51.302;17.068;2023-04-03T18:57:06;14.50;;;5.20;;
77217;SDS011;66214;51.302;17.068;2023-04-03T18:59:37;11.90;;;4.80;;
77217;SDS011;66214;51.302;17.068;2023-04-03T19:02:07;14.10;;;4.30;;
77217;SDS011;66214;51.302;17.068;2023-04-03T19:07:42;12.60;;;5.30;;
77217;SDS011;66214;51.302;17.068;2023-04-03T19:10:12;12.70;;;6.00;;
77217;SDS011;66214;51.302;17.068;2023-04-03T19:12:46;11.70;;;3.90;;
77217;SDS011;66214;51.302;17.068;2023-04-03T19:15:17;15.20;;;5.00;;
77217;SDS011;66214;51.302;17.068;2023-04-03T19:17:48;11.80;;;5.00;;
77217;SDS011;66214;51.302;17.068;2023-04-03T19:20:17;12.70;;;4.70;;
77217;SDS011;66214;51.302;17.068;2023-04-03T19:22:46;10.30;;;4.00;;
77217;SDS011;66214;51.302;17.068;2023-04-03T19:25:16;12.90;;;3.90;;
77217;SDS011;66214;51.302;17.068;2023-04-03T19:27:44;8.90;;;3.60;;
77217;SDS011;66214;51.302;17.068;2023-04-03T19:30:14;8.20;;;3.10;;
77217;SDS011;66214;51.302;17.068;2023-04-03T19:32:58;8.20;;;3.00;;
77217;SDS011;66214;51.302;17.068;2023-04-03T19:35:27;12.10;;;3.70;;
77217;SDS011;66214;51.302;17.068;2023-04-03T19:37:56;10.80;;;4.30;;
77217;SDS011;66214;51.302;17.068;2023-04-03T19:40:25;11.50;;;3.80;;
77217;SDS011;66214;51.302;17.068;2023-04-03T19:42:56;9.90;;;3.50;;
77217;SDS011;66214;51.302;17.068;2023-04-03T19:45:25;6.90;;;2.90;;
77217;SDS011;66214;51.302;17.068;2023-04-03T19:47:55;11.70;;;3.50;;
77217;SDS011;66214;51.302;17.068;2023-04-03T19:50:28;14.00;;;2.70;;
77217;SDS011;66214;51.302;17.068;2023-04-03T19:52:57;11.30;;;2.90;;
77217;SDS011;66214;51.302;17.068;2023-04-03T19:55:29;10.60;;;4.30;;
77217;SDS011;66214;51.302;17.068;2023-04-03T19:57:59;11.80;;;3.90;;
77217;SDS011;66214;51.302;17.068;2023-04-03T20:00:29;7.90;;;3.50;;
77217;SDS011;66214;51.302;17.068;2023-04-03T20:02:59;8.40;;;3.00;;
77217;SDS011;66214;51.302;17.068;2023-04-03T20:05:28;7.80;;;3.00;;
77217;SDS011;66214;51.302;17.068;2023-04-03T20:07:56;10.40;;;3.60;;
77217;SDS011;66214;51.302;17.068;2023-04-03T20:10:24;10.00;;;3.30;;
77217;SDS011;66214;51.302;17.068;2023-04-03T20:12:53;8.60;;;3.10;;
77217;SDS011;66214;51.302;17.068;2023-04-03T20:15:21;8.50;;;3.30;;
77217;SDS011;66214;51.302;17.068;2023-04-03T20:17:49;13.40;;;4.40;;
77217;SDS011;66214;51.302;17.068;2023-04-03T20:20:17;8.90;;;3.00;;
77217;SDS011;66214;51.302;17.068;2023-04-03T20:22:46;11.10;;;3.50;;
